Time,TemperatureF,DewpointF,PressureIn,WindDirection,WindDirectionDegrees,WindSpeedMPH,WindSpeedGustMPH,Humidity,HourlyPrecipIn,Conditions,Clouds,dailyrainin,SoftwareType,DateUTC
2013-06-27 00:03:00,83.0,73.4,29.92,SE,141,3.0,5.0,73,0.00,SCT,SCT,0.00,WeatherDisplay:10.37,2013-06-27 05:03:00,
2013-06-27 00:09:00,83.0,73.4,29.92,SSE,156,3.0,4.0,73,0.00,SCT,SCT,0.00,WeatherDisplay:10.37,2013-06-27 05:09:00,
2013-06-27 00:15:00,83.0,73.4,29.92,SSE,157,3.0,4.0,73,0.00,SCT,SCT,0.00,WeatherDisplay:10.37,2013-06-27 05:15:00,
2013-06-27 00:21:00,82.6,73.8,29.92,SSE,156,5.0,7.0,75,0.00,SCT,SCT,0.00,WeatherDisplay:10.37,2013-06-27 05:21:00,
2013-06-27 00:27:00,82.6,73.8,29.92,SSE,166,3.0,6.0,75,0.00,SCT,SCT,0.00,WeatherDisplay:10.37,2013-06-27 05:27:00,
2013-06-27 00:33:00,82.4,73.6,29.92,SSE,156,3.0,6.0,75,0.00,SCT,SCT,0.00,WeatherDisplay:10.37,2013-06-27 05:33:00,
2013-06-27 00:39:00,82.3,73.9,29.92,SSE,153,1.0,5.0,76,0.00,SCT,SCT,0.00,WeatherDisplay:10.37,2013-06-27 05:39:00,
2013-06-27 00:45:00,82.1,73.7,29.92,SE,131,5.0,6.0,76,0.00,SCT,SCT,0.00,WeatherDisplay:10.37,2013-06-27 05:45:00,
2013-06-27 00:51:00,81.8,73.9,29.92,South,172,3.0,6.0,77,0.00,SCT,SCT,0.00,WeatherDisplay:10.37,2013-06-27 05:51:00,
2013-06-27 00:57:00,81.7,73.7,29.92,SSE,162,0.0,3.0,77,0.00,SCT,SCT,0.00,WeatherDisplay:10.37,2013-06-27 05:57:00,
2013-06-27 01:03:00,81.5,73.6,29.92,SSE,159,1.0,5.0,77,0.00,BKN,BKN,0.00,WeatherDisplay:10.37,2013-06-27 06:03:00,
2013-06-27 01:09:00,81.4,73.8,29.92,SSE,153,0.0,0.0,78,0.00,BKN,BKN,0.00,WeatherDisplay:10.37,2013-06-27 06:09:00,
2013-06-27 01:15:00,81.2,73.6,29.92,SSE,151,1.0,4.0,78,0.00,BKN,BKN,0.00,WeatherDisplay:10.37,2013-06-27 06:15:00,
2013-06-27 01:21:00,81.0,73.5,29.92,SE,143,0.0,0.0,78,0.00,BKN,BKN,0.00,WeatherDisplay:10.37,2013-06-27 06:21:00,
2013-06-27 01:27:00,81.0,73.8,29.92,SSE,159,0.0,0.0,79,0.00,BKN,BKN,0.00,WeatherDisplay:10.37,2013-06-27 06:27:00,
2013-06-27 01:33:00,80.8,73.6,29.92,SSE,156,3.0,5.0,79,0.00,BKN,BKN,0.00,WeatherDisplay:10.37,2013-06-27 06:33:00,
2013-06-27 01:39:00,80.7,73.6,29.92,SE,144,0.0,8.0,79,0.00,BKN,BKN,0.00,WeatherDisplay:10.37,2013-06-27 06:39:00,
2013-06-27 01:45:00,80.5,73.4,29.92,SSE,151,3.0,6.0,79,0.00,BKN,BKN,0.00,WeatherDisplay:10.37,2013-06-27 06:45:00,
2013-06-27 01:51:00,80.5,73.3,29.92,SSE,156,0.0,0.0,79,0.00,BKN,BKN,0.00,WeatherDisplay:10.37,2013-06-27 06:51:00,
2013-06-27 01:57:00,80.3,73.5,29.92,SSE,159,0.0,0.0,80,0.00,BKN,BKN,0.00,WeatherDisplay:10.37,2013-06-27 06:57:00,
2013-06-27 02:03:00,80.1,73.3,29.92,SSE,158,0.0,0.0,80,0.00,BKN,BKN,0.00,WeatherDisplay:10.37,2013-06-27 07:03:00,
2013-06-27 02:09:00,79.9,73.5,29.92,SSE,156,0.0,0.0,81,0.00,BKN,BKN,0.00,WeatherDisplay:10.37,2013-06-27 07:09:00,
2013-06-27 02:15:00,79.7,73.3,29.92,SSE,151,0.0,0.0,81,0.00,BKN,BKN,0.00,WeatherDisplay:10.37,2013-06-27 07:15:00,
2013-06-27 02:21:00,79.7,73.3,29.92,SSE,163,0.0,0.0,81,0.00,BKN,BKN,0.00,WeatherDisplay:10.37,2013-06-27 07:21:00,
2013-06-27 02:30:00,79.4,73.4,29.91,SE,129,0.0,0.0,82,0.00,BKN,BKN,0.00,WeatherDisplay:10.37,2013-06-27 07:30:00,
2013-06-27 02:36:00,79.3,73.3,29.91,ESE,122,0.0,3.0,82,0.00,BKN,BKN,0.00,WeatherDisplay:10.37,2013-06-27 07:36:00,
2013-06-27 02:42:00,78.8,73.5,29.91,ESE,111,0.0,2.0,84,0.00,BKN,BKN,0.00,WeatherDisplay:10.37,2013-06-27 07:42:00,
2013-06-27 02:48:00,78.7,73.4,29.91,SE,146,0.0,0.0,84,0.00,BKN,BKN,0.00,WeatherDisplay:10.37,2013-06-27 07:48:00,
2013-06-27 02:54:00,78.5,73.6,29.92,SSE,166,0.0,3.0,85,0.00,BKN,BKN,0.00,WeatherDisplay:10.37,2013-06-27 07:54:00,
2013-06-27 03:00:00,78.3,73.4,29.92,ESE,118,0.0,0.0,85,0.00,BKN,BKN,0.00,WeatherDisplay:10.37,2013-06-27 08:00:00,
2013-06-27 03:06:00,78.1,73.2,29.91,SE,144,0.0,0.0,85,0.00,BKN,BKN,0.00,WeatherDisplay:10.37,2013-06-27 08:06:00,
2013-06-27 03:12:00,77.9,73.4,29.91,SSE,166,0.0,0.0,86,0.00,BKN,BKN,0.00,WeatherDisplay:10.37,2013-06-27 08:12:00,
2013-06-27 03:18:00,77.9,73.3,29.91,SSE,154,0.0,0.0,86,0.00,BKN,BKN,0.00,WeatherDisplay:10.37,2013-06-27 08:18:00,
2013-06-27 03:24:00,77.8,73.2,29.91,SSE,158,3.0,5.0,86,0.00,BKN,BKN,0.00,WeatherDisplay:10.37,2013-06-27 08:24:00,
2013-06-27 03:30:00,77.8,73.2,29.92,SSE,153,0.0,0.0,86,0.00,BKN,BKN,0.00,WeatherDisplay:10.37,2013-06-27 08:30:00,
2013-06-27 03:36:00,77.4,73.2,29.91,East,97,0.0,0.0,87,0.00,BKN,BKN,0.00,WeatherDisplay:10.37,2013-06-27 08:36:00,
2013-06-27 03:42:00,77.2,73.0,29.91,East,93,0.0,0.0,87,0.00,BKN,BKN,0.00,WeatherDisplay:10.37,2013-06-27 08:42:00,
2013-06-27 03:48:00,77.0,72.8,29.91,ESE,104,0.0,0.0,87,0.00,BKN,BKN,0.00,WeatherDisplay:10.37,2013-06-27 08:48:00,
2013-06-27 03:54:00,76.9,73.0,29.92,SE,134,0.0,0.0,88,0.00,BKN,BKN,0.00,WeatherDisplay:10.37,2013-06-27 08:54:00,
2013-06-27 04:00:00,76.7,72.8,29.92,SSE,149,0.0,0.0,88,0.00,BKN,BKN,0.00,WeatherDisplay:10.37,2013-06-27 09:00:00,
2013-06-27 04:06:00,76.7,72.8,29.91,South,169,1.0,3.0,88,0.00,BKN,BKN,0.00,WeatherDisplay:10.37,2013-06-27 09:06:00,
2013-06-27 04:12:00,76.7,72.8,29.91,SSE,163,0.0,3.0,88,0.00,BKN,BKN,0.00,WeatherDisplay:10.37,2013-06-27 09:12:00,
2013-06-27 04:18:00,76.7,72.8,29.91,SSE,166,1.0,6.0,88,0.00,BKN,BKN,0.00,WeatherDisplay:10.37,2013-06-27 09:18:00,
2013-06-27 04:24:00,76.7,72.8,29.91,South,169,5.0,6.0,88,0.00,BKN,BKN,0.00,WeatherDisplay:10.37,2013-06-27 09:24:00,
2013-06-27 04:30:00,76.5,73.0,29.91,SSE,162,0.0,0.0,89,0.00,BKN,BKN,0.00,WeatherDisplay:10.37,2013-06-27 09:30:00,
2013-06-27 04:36:00,76.3,72.8,29.91,SE,124,0.0,0.0,89,0.00,BKN,BKN,0.00,WeatherDisplay:10.37,2013-06-27 09:36:00,
2013-06-27 04:42:00,76.1,72.6,29.91,East,91,0.0,0.0,89,0.00,BKN,BKN,0.00,WeatherDisplay:10.37,2013-06-27 09:42:00,
2013-06-27 04:48:00,76.0,72.5,29.91,East,92,0.0,0.0,89,0.00,BKN,BKN,0.00,WeatherDisplay:10.37,2013-06-27 09:48:00,
2013-06-27 04:54:00,75.8,72.9,29.91,East,84,0.0,0.0,91,0.00,BKN,BKN,0.00,WeatherDisplay:10.37,2013-06-27 09:54:00,
2013-06-27 05:00:00,75.6,72.7,29.91,SE,124,0.0,0.0,91,0.00,BKN,BKN,0.00,WeatherDisplay:10.37,2013-06-27 10:00:00,
2013-06-27 05:06:00,75.6,72.7,29.91,SE,143,0.0,0.0,91,0.00,BKN,BKN,0.00,WeatherDisplay:10.37,2013-06-27 10:06:00,
2013-06-27 05:12:00,75.6,72.7,29.91,SSE,156,1.0,3.0,91,0.00,BKN,BKN,0.00,WeatherDisplay:10.37,2013-06-27 10:12:00,
2013-06-27 05:18:00,75.6,72.7,29.91,SSE,156,0.0,0.0,91,0.00,BKN,BKN,0.00,WeatherDisplay:10.37,2013-06-27 10:18:00,
2013-06-27 05:24:00,75.4,72.5,29.91,SSE,159,0.0,0.0,91,0.00,BKN,BKN,0.00,WeatherDisplay:10.37,2013-06-27 10:24:00,
2013-06-27 05:30:00,75.2,72.7,29.91,SSE,167,0.0,0.0,92,0.00,BKN,BKN,0.00,WeatherDisplay:10.37,2013-06-27 10:30:00,
2013-06-27 05:36:00,75.1,72.6,29.91,ESE,121,0.0,0.0,92,0.00,BKN,BKN,0.00,WeatherDisplay:10.37,2013-06-27 10:36:00,
2013-06-27 05:42:00,74.7,72.2,29.92,SE,132,0.0,0.0,92,0.00,BKN,BKN,0.00,WeatherDisplay:10.37,2013-06-27 10:42:00,
2013-06-27 05:48:00,74.5,72.0,29.92,East,97,0.0,0.0,92,0.00,BKN,BKN,0.00,WeatherDisplay:10.37,2013-06-27 10:48:00,
2013-06-27 05:54:00,74.3,72.1,29.92,SE,128,0.0,0.0,93,0.00,BKN,BKN,0.00,WeatherDisplay:10.37,2013-06-27 10:54:00,
2013-06-27 06:00:00,74.2,72.1,29.92,ESE,112,0.0,0.0,93,0.00,BKN,BKN,0.00,WeatherDisplay:10.37,2013-06-27 11:00:00,
2013-06-27 06:06:00,74.0,71.8,29.92,ENE,70,0.0,0.0,93,0.00,BKN,BKN,0.00,WeatherDisplay:10.37,2013-06-27 11:06:00,
2013-06-27 06:12:00,73.8,71.6,29.92,East,84,0.0,0.0,93,0.00,BKN,BKN,0.00,WeatherDisplay:10.37,2013-06-27 11:12:00,
2013-06-27 06:18:00,73.8,71.6,29.92,East,93,0.0,0.0,93,0.00,BKN,BKN,0.00,WeatherDisplay:10.37,2013-06-27 11:18:00,
2013-06-27 06:24:00,73.6,71.7,29.92,East,96,0.0,0.0,94,0.00,BKN,BKN,0.00,WeatherDisplay:10.37,2013-06-27 11:24:00,
2013-06-27 06:30:00,73.6,71.7,29.92,SE,124,0.0,2.0,94,0.00,BKN,BKN,0.00,WeatherDisplay:10.37,2013-06-27 11:30:00,
2013-06-27 06:36:00,73.6,71.7,29.92,SE,129,1.0,2.0,94,0.00,BKN,BKN,0.00,WeatherDisplay:10.37,2013-06-27 11:36:00,
2013-06-27 06:42:00,73.6,71.7,29.92,SSE,147,0.0,0.0,94,0.00,BKN,BKN,0.00,WeatherDisplay:10.37,2013-06-27 11:42:00,
2013-06-27 06:48:00,73.8,71.9,29.92,SSE,153,3.0,4.0,94,0.00,BKN,BKN,0.00,WeatherDisplay:10.37,2013-06-27 11:48:00,
2013-06-27 06:54:00,74.0,72.1,29.93,SE,140,2.0,3.0,94,0.00,BKN,BKN,0.00,WeatherDisplay:10.37,2013-06-27 11:54:00,
2013-06-27 07:00:00,74.0,71.8,29.93,ESE,105,0.0,0.0,93,0.00,BKN,BKN,0.00,WeatherDisplay:10.37,2013-06-27 12:00:00,
2013-06-27 07:06:00,74.2,72.0,29.93,ESE,105,0.0,0.0,93,0.00,BKN,BKN,0.00,WeatherDisplay:10.37,2013-06-27 12:06:00,
2013-06-27 07:12:00,74.4,72.3,29.93,ESE,115,0.0,0.0,93,0.00,BKN,BKN,0.00,WeatherDisplay:10.37,2013-06-27 12:12:00,
2013-06-27 07:18:00,74.9,72.7,29.93,East,88,0.0,0.0,93,0.00,BKN,BKN,0.00,WeatherDisplay:10.37,2013-06-27 12:18:00,
2013-06-27 07:24:00,75.4,72.9,29.93,ENE,74,0.0,0.0,92,0.00,BKN,BKN,0.00,WeatherDisplay:10.37,2013-06-27 12:24:00,
2013-06-27 07:30:00,75.6,73.1,29.93,SE,131,0.0,0.0,92,0.00,BKN,BKN,0.00,WeatherDisplay:10.37,2013-06-27 12:30:00,
2013-06-27 07:36:00,76.0,73.2,29.93,SE,137,0.0,0.0,91,0.00,BKN,BKN,0.00,WeatherDisplay:10.37,2013-06-27 12:36:00,
2013-06-27 07:42:00,76.5,73.6,29.93,ESE,111,0.0,0.0,91,0.00,BKN,BKN,0.00,WeatherDisplay:10.37,2013-06-27 12:42:00,
2013-06-27 07:48:00,76.5,73.3,29.93,ESE,113,0.0,0.0,90,0.00,BKN,BKN,0.00,WeatherDisplay:10.37,2013-06-27 12:48:00,
2013-06-27 07:54:00,76.7,73.2,29.93,South,175,1.0,4.0,89,0.00,BKN,BKN,0.00,WeatherDisplay:10.37,2013-06-27 12:54:00,
2013-06-27 08:00:00,77.0,73.5,29.93,South,174,0.0,5.0,89,0.00,BKN,BKN,0.00,WeatherDisplay:10.37,2013-06-27 13:00:00,
2013-06-27 08:06:00,77.4,73.5,29.93,SSE,156,5.0,8.0,88,0.00,SCT,SCT,0.00,WeatherDisplay:10.37,2013-06-27 13:06:00,
2013-06-27 08:12:00,77.8,74.0,29.93,SSE,163,2.0,5.0,88,0.00,SCT,SCT,0.00,WeatherDisplay:10.37,2013-06-27 13:12:00,
2013-06-27 08:18:00,78.4,74.2,29.94,SSE,158,3.0,7.0,87,0.00,SCT,SCT,0.00,WeatherDisplay:10.37,2013-06-27 13:18:00,
2013-06-27 08:24:00,79.0,74.5,29.94,SSE,155,3.0,6.0,86,0.00,SCT,SCT,0.00,WeatherDisplay:10.37,2013-06-27 13:24:00,
2013-06-27 08:30:00,79.6,74.7,29.94,SSE,163,0.0,0.0,85,0.00,SCT,SCT,0.00,WeatherDisplay:10.37,2013-06-27 13:30:00,
2013-06-27 08:36:00,80.6,75.3,29.94,SE,146,0.0,0.0,84,0.00,SCT,SCT,0.00,WeatherDisplay:10.37,2013-06-27 13:36:00,
2013-06-27 08:42:00,81.0,74.6,29.94,SE,143,0.0,5.0,81,0.00,SCT,SCT,0.00,WeatherDisplay:10.37,2013-06-27 13:42:00,
2013-06-27 08:48:00,81.7,75.3,29.94,SSE,157,3.0,7.0,81,0.00,SCT,SCT,0.00,WeatherDisplay:10.37,2013-06-27 13:48:00,
2013-06-27 08:54:00,82.1,75.3,29.94,SE,127,3.0,8.0,80,0.00,SCT,SCT,0.00,WeatherDisplay:10.37,2013-06-27 13:54:00,
2013-06-27 09:00:00,82.4,74.8,29.94,SE,124,1.0,6.0,78,0.00,SCT,SCT,0.00,WeatherDisplay:10.37,2013-06-27 14:00:00,
2013-06-27 09:06:00,83.0,75.0,29.94,SE,125,3.0,5.0,77,0.00,SCT,SCT,0.00,WeatherDisplay:10.37,2013-06-27 14:06:00,
2013-06-27 09:12:00,84.0,75.7,29.94,SSE,151,1.0,6.0,76,0.00,SCT,SCT,0.00,WeatherDisplay:10.37,2013-06-27 14:12:00,
2013-06-27 09:18:00,85.0,75.7,29.95,SSE,148,2.0,7.0,74,0.00,SCT,SCT,0.00,WeatherDisplay:10.37,2013-06-27 14:18:00,
2013-06-27 09:24:00,85.9,75.8,29.95,SE,134,2.0,6.0,72,0.00,SCT,SCT,0.00,WeatherDisplay:10.37,2013-06-27 14:24:00,
2013-06-27 09:30:00,86.4,75.0,29.95,SSE,166,2.0,4.0,69,0.00,SCT,SCT,0.00,WeatherDisplay:10.37,2013-06-27 14:30:00,
2013-06-27 09:36:00,87.7,75.4,29.95,SSE,152,3.0,6.0,67,0.00,SCT,SCT,0.00,WeatherDisplay:10.37,2013-06-27 14:36:00,
2013-06-27 09:42:00,88.2,74.4,29.95,SE,144,5.0,7.0,64,0.00,SCT,SCT,0.00,WeatherDisplay:10.37,2013-06-27 14:42:00,
2013-06-27 09:48:00,88.8,75.0,29.95,SSE,159,0.0,5.0,64,0.00,SCT,SCT,0.00,WeatherDisplay:10.37,2013-06-27 14:48:00,
2013-06-27 09:54:00,90.2,75.0,29.95,South,181,2.0,5.0,61,0.00,SCT,SCT,0.00,WeatherDisplay:10.37,2013-06-27 14:54:00,
2013-06-27 10:00:00,91.2,74.4,29.95,SSE,151,3.0,5.0,58,0.00,SCT,SCT,0.00,WeatherDisplay:10.37,2013-06-27 15:00:00,
2013-06-27 10:06:00,90.9,74.1,29.95,SSW,208,3.0,9.0,58,0.00,BKN,BKN,0.00,WeatherDisplay:10.37,2013-06-27 15:06:00,
2013-06-27 10:12:00,92.4,74.4,29.95,SSW,208,5.0,7.0,56,0.00,BKN,BKN,0.00,WeatherDisplay:10.37,2013-06-27 15:12:00,
2013-06-27 10:18:00,92.3,73.8,29.94,South,173,2.0,5.0,55,0.00,BKN,BKN,0.00,WeatherDisplay:10.37,2013-06-27 15:18:00,
2013-06-27 10:24:00,92.3,73.2,29.94,South,178,5.0,6.0,54,0.00,BKN,BKN,0.00,WeatherDisplay:10.37,2013-06-27 15:24:00,
2013-06-27 10:30:00,93.0,74.4,29.94,SE,142,3.0,5.0,55,0.00,BKN,BKN,0.00,WeatherDisplay:10.37,2013-06-27 15:30:00,
2013-06-27 10:36:00,93.3,74.2,29.94,SSE,156,3.0,5.0,54,0.00,BKN,BKN,0.00,WeatherDisplay:10.37,2013-06-27 15:36:00,
2013-06-27 10:42:00,94.9,73.9,29.95,SSE,165,3.0,6.0,51,0.00,BKN,BKN,0.00,WeatherDisplay:10.37,2013-06-27 15:42:00,
2013-06-27 10:48:00,96.2,75.1,29.95,SSE,151,1.0,6.0,51,0.00,BKN,BKN,0.00,WeatherDisplay:10.37,2013-06-27 15:48:00,
2013-06-27 10:54:00,95.8,74.2,29.94,South,177,5.0,7.0,50,0.00,BKN,BKN,0.00,WeatherDisplay:10.37,2013-06-27 15:54:00,
2013-06-27 11:00:00,96.7,73.7,29.94,South,178,2.0,4.0,48,0.00,BKN,BKN,0.00,WeatherDisplay:10.37,2013-06-27 16:00:00,
2013-06-27 11:06:00,94.1,72.6,29.94,SW,224,3.0,5.0,50,0.00,BKN,BKN,0.00,WeatherDisplay:10.37,2013-06-27 16:06:00,
2013-06-27 11:12:00,93.6,73.9,29.94,SSE,162,1.0,8.0,53,0.00,BKN,BKN,0.00,WeatherDisplay:10.37,2013-06-27 16:12:00,
2013-06-27 11:18:00,94.3,73.9,29.94,ESE,121,5.0,9.0,52,0.00,BKN,BKN,0.00,WeatherDisplay:10.37,2013-06-27 16:18:00,
2013-06-27 11:24:00,94.2,73.3,29.94,ESE,105,2.0,7.0,51,0.00,BKN,BKN,0.00,WeatherDisplay:10.37,2013-06-27 16:24:00,
2013-06-27 11:30:00,96.0,74.4,29.94,East,93,3.0,7.0,50,0.00,BKN,BKN,0.00,WeatherDisplay:10.37,2013-06-27 16:30:00,
2013-06-27 11:36:00,95.9,74.8,29.94,East,93,1.0,4.0,51,0.00,BKN,BKN,0.00,WeatherDisplay:10.37,2013-06-27 16:36:00,
2013-06-27 11:42:00,96.4,74.7,29.94,SE,135,6.0,7.0,50,0.00,BKN,BKN,0.00,WeatherDisplay:10.37,2013-06-27 16:42:00,
2013-06-27 11:48:00,96.5,73.6,29.94,SE,139,1.0,5.0,48,0.00,BKN,BKN,0.00,WeatherDisplay:10.37,2013-06-27 16:48:00,
2013-06-27 11:54:00,97.2,72.9,29.94,SSW,195,3.0,5.0,46,0.00,BKN,BKN,0.00,WeatherDisplay:10.37,2013-06-27 16:54:00,
2013-06-27 12:00:00,98.0,73.1,29.94,ENE,64,3.0,7.0,45,0.00,BKN,BKN,0.00,WeatherDisplay:10.37,2013-06-27 17:00:00,
2013-06-27 12:06:00,97.3,73.1,29.93,East,81,3.0,6.0,46,0.00,BKN,BKN,0.00,WeatherDisplay:10.37,2013-06-27 17:06:00,
2013-06-27 12:12:00,98.8,73.1,29.93,SE,136,3.0,7.0,44,0.00,BKN,BKN,0.00,WeatherDisplay:10.37,2013-06-27 17:12:00,
2013-06-27 12:18:00,98.5,74.2,29.93,East,87,2.0,6.0,46,0.00,BKN,BKN,0.00,WeatherDisplay:10.37,2013-06-27 17:18:00,
2013-06-27 12:24:00,99.3,72.8,29.93,ESE,122,2.0,7.0,43,0.00,BKN,BKN,0.00,WeatherDisplay:10.37,2013-06-27 17:24:00,
2013-06-27 12:30:00,100.4,73.2,29.93,WSW,240,3.0,5.0,42,0.00,BKN,BKN,0.00,WeatherDisplay:10.37,2013-06-27 17:30:00,
2013-06-27 12:36:00,99.6,73.1,29.93,WSW,243,6.0,9.0,43,0.00,BKN,BKN,0.00,WeatherDisplay:10.37,2013-06-27 17:36:00,
2013-06-27 12:42:00,100.1,70.7,29.93,WSW,251,7.0,10.0,39,0.00,BKN,BKN,0.00,WeatherDisplay:10.37,2013-06-27 17:42:00,
2013-06-27 12:48:00,101.6,74.2,29.93,NNW,344,5.0,6.0,42,0.00,BKN,BKN,0.00,WeatherDisplay:10.37,2013-06-27 17:48:00,
2013-06-27 12:54:00,101.7,73.6,29.93,East,83,5.0,7.0,41,0.00,BKN,BKN,0.00,WeatherDisplay:10.37,2013-06-27 17:54:00,
2013-06-27 13:00:00,99.8,72.6,29.93,East,91,5.0,7.0,42,0.00,BKN,BKN,0.00,WeatherDisplay:10.37,2013-06-27 18:00:00,
2013-06-27 13:06:00,99.5,72.3,29.93,East,100,1.0,5.0,42,0.00,BKN,BKN,0.00,WeatherDisplay:10.37,2013-06-27 18:06:00,
2013-06-27 13:12:00,98.5,74.2,29.93,ESE,102,3.0,4.0,46,0.00,BKN,BKN,0.00,WeatherDisplay:10.37,2013-06-27 18:12:00,
2013-06-27 13:18:00,97.0,74.1,29.93,ENE,72,5.0,7.0,48,0.00,BKN,BKN,0.00,WeatherDisplay:10.37,2013-06-27 18:18:00,
2013-06-27 13:24:00,96.8,73.3,29.93,ENE,77,5.0,6.0,47,0.00,BKN,BKN,0.00,WeatherDisplay:10.37,2013-06-27 18:24:00,
2013-06-27 13:30:00,95.2,74.2,29.92,ESE,111,1.0,4.0,51,0.00,BKN,BKN,0.00,WeatherDisplay:10.37,2013-06-27 18:30:00,
2013-06-27 13:36:00,96.3,74.0,29.92,ESE,122,2.0,6.0,49,0.00,SCT,SCT,0.00,WeatherDisplay:10.37,2013-06-27 18:36:00,
2013-06-27 13:42:00,97.3,74.3,29.91,SE,137,2.0,6.0,48,0.00,SCT,SCT,0.00,WeatherDisplay:10.37,2013-06-27 18:42:00,
2013-06-27 13:48:00,97.7,74.1,29.91,ESE,114,2.0,5.0,47,0.00,SCT,SCT,0.00,WeatherDisplay:10.37,2013-06-27 18:48:00,
2013-06-27 13:54:00,97.8,74.8,29.91,ESE,111,5.0,7.0,48,0.00,SCT,SCT,0.00,WeatherDisplay:10.37,2013-06-27 18:54:00,
2013-06-27 14:00:00,98.8,74.4,29.91,SE,146,3.0,6.0,46,0.00,SCT,SCT,0.00,WeatherDisplay:10.37,2013-06-27 19:00:00,
2013-06-27 14:06:00,99.6,75.1,29.90,SE,129,6.0,9.0,46,0.00,BKN,BKN,0.00,WeatherDisplay:10.37,2013-06-27 19:06:00,
2013-06-27 14:12:00,99.9,73.4,29.90,ESE,110,6.0,9.0,43,0.00,BKN,BKN,0.00,WeatherDisplay:10.37,2013-06-27 19:12:00,
2013-06-27 14:18:00,100.1,74.3,29.90,East,92,6.0,9.0,44,0.00,BKN,BKN,0.00,WeatherDisplay:10.37,2013-06-27 19:18:00,
2013-06-27 14:24:00,101.0,75.0,29.90,East,97,5.0,10.0,44,0.00,BKN,BKN,0.00,WeatherDisplay:10.37,2013-06-27 19:24:00,
2013-06-27 14:30:00,101.0,73.7,29.90,ESE,112,5.0,7.0,42,0.00,BKN,BKN,0.00,WeatherDisplay:10.37,2013-06-27 19:30:00,
2013-06-27 14:36:00,101.4,74.0,29.90,ESE,102,6.0,8.0,42,0.00,BKN,BKN,0.00,WeatherDisplay:10.37,2013-06-27 19:36:00,
2013-06-27 14:42:00,101.2,73.1,29.90,East,86,5.0,8.0,41,0.00,BKN,BKN,0.00,WeatherDisplay:10.37,2013-06-27 19:42:00,
2013-06-27 14:48:00,102.8,74.6,29.90,ENE,65,3.0,4.0,41,0.00,BKN,BKN,0.00,WeatherDisplay:10.37,2013-06-27 19:48:00,
2013-06-27 14:54:00,102.0,73.8,29.91,North,7,2.0,4.0,41,0.00,BKN,BKN,0.00,WeatherDisplay:10.37,2013-06-27 19:54:00,
2013-06-27 15:00:00,99.4,73.0,29.91,NE,46,3.0,4.0,43,0.00,BKN,BKN,0.00,WeatherDisplay:10.37,2013-06-27 20:00:00,
2013-06-27 15:06:00,99.2,72.1,29.91,ENE,73,3.0,5.0,42,0.00,BKN,BKN,0.00,WeatherDisplay:10.37,2013-06-27 20:06:00,
2013-06-27 15:12:00,97.6,73.3,29.91,East,99,1.0,5.0,46,0.00,BKN,BKN,0.00,WeatherDisplay:10.37,2013-06-27 20:12:00,
2013-06-27 15:18:00,97.7,74.0,29.89,ESE,113,2.0,4.0,47,0.00,BKN,BKN,0.00,WeatherDisplay:10.37,2013-06-27 20:18:00,
2013-06-27 15:24:00,97.8,72.9,29.89,SSE,154,3.0,7.0,45,0.00,BKN,BKN,0.00,WeatherDisplay:10.37,2013-06-27 20:24:00,
2013-06-27 15:30:00,99.1,74.0,29.88,WNW,299,1.0,4.0,45,0.00,BKN,BKN,0.00,WeatherDisplay:10.37,2013-06-27 20:30:00,
2013-06-27 15:36:00,97.7,74.0,29.88,North,7,0.0,3.0,47,0.00,BKN,BKN,0.00,WeatherDisplay:10.37,2013-06-27 20:36:00,
2013-06-27 15:42:00,98.0,73.7,29.88,ESE,120,2.0,5.0,46,0.00,BKN,BKN,0.00,WeatherDisplay:10.37,2013-06-27 20:42:00,
2013-06-27 15:48:00,100.0,74.8,29.87,East,79,3.0,5.0,45,0.00,BKN,BKN,0.00,WeatherDisplay:10.37,2013-06-27 20:48:00,
2013-06-27 15:54:00,101.1,74.5,29.86,ENE,74,7.0,12.0,43,0.00,BKN,BKN,0.00,WeatherDisplay:10.37,2013-06-27 20:54:00,
2013-06-27 16:00:00,100.4,73.9,29.86,East,79,5.0,9.0,43,0.00,BKN,BKN,0.00,WeatherDisplay:10.37,2013-06-27 21:00:00,
2013-06-27 16:06:00,101.6,74.2,29.86,East,82,5.0,7.0,42,0.00,BKN,BKN,0.00,WeatherDisplay:10.37,2013-06-27 21:06:00,
2013-06-27 16:12:00,102.3,74.1,29.86,ESE,109,6.0,8.0,41,0.00,BKN,BKN,0.00,WeatherDisplay:10.37,2013-06-27 21:12:00,
2013-06-27 16:18:00,100.8,72.8,29.85,SSE,152,7.0,9.0,41,0.00,BKN,BKN,0.00,WeatherDisplay:10.37,2013-06-27 21:18:00,
2013-06-27 16:24:00,99.7,73.2,29.85,SE,141,7.0,10.0,43,0.00,BKN,BKN,0.00,WeatherDisplay:10.37,2013-06-27 21:24:00,
2013-06-27 16:30:00,99.8,73.3,29.83,SSE,147,6.0,10.0,43,0.00,BKN,BKN,0.00,WeatherDisplay:10.37,2013-06-27 21:30:00,
2013-06-27 16:36:00,100.6,74.0,29.83,SE,146,6.0,7.0,43,0.00,BKN,BKN,0.00,WeatherDisplay:10.37,2013-06-27 21:36:00,
2013-06-27 16:42:00,100.7,74.1,29.82,East,101,10.0,18.0,43,0.00,BKN,BKN,0.00,WeatherDisplay:10.37,2013-06-27 21:42:00,
2013-06-27 16:51:00,100.2,74.3,29.81,SE,134,9.0,12.0,44,0.00,BKN,BKN,0.00,WeatherDisplay:10.37,2013-06-27 21:51:00,
2013-06-27 16:57:00,100.1,74.2,29.81,ESE,118,12.0,16.0,44,0.00,BKN,BKN,0.00,WeatherDisplay:10.37,2013-06-27 21:57:00,
2013-06-27 17:03:00,100.1,74.9,29.80,SE,144,7.0,12.0,45,0.00,SCT,SCT,0.00,WeatherDisplay:10.37,2013-06-27 22:03:00,
2013-06-27 17:09:00,100.1,75.0,29.80,SSE,156,8.0,15.0,45,0.00,SCT,SCT,0.00,WeatherDisplay:10.37,2013-06-27 22:09:00,
2013-06-27 17:15:00,99.1,74.7,29.81,SE,124,7.0,10.0,46,0.00,SCT,SCT,0.00,WeatherDisplay:10.37,2013-06-27 22:15:00,
2013-06-27 17:21:00,98.1,75.0,29.81,ESE,105,7.0,10.0,48,0.00,SCT,SCT,0.00,WeatherDisplay:10.37,2013-06-27 22:21:00,
2013-06-27 17:27:00,97.9,74.9,29.81,ESE,123,8.0,12.0,48,0.00,SCT,SCT,0.00,WeatherDisplay:10.37,2013-06-27 22:27:00,
2013-06-27 17:33:00,97.2,74.2,29.81,SSE,148,6.0,8.0,48,0.00,SCT,SCT,0.00,WeatherDisplay:10.37,2013-06-27 22:33:00,
2013-06-27 17:39:00,96.9,74.6,29.82,SE,137,6.0,8.0,49,0.00,SCT,SCT,0.00,WeatherDisplay:10.37,2013-06-27 22:39:00,
2013-06-27 17:45:00,96.7,73.7,29.82,ESE,109,5.0,8.0,48,0.00,SCT,SCT,0.00,WeatherDisplay:10.37,2013-06-27 22:45:00,
2013-06-27 17:51:00,96.7,74.4,29.83,East,94,7.0,12.0,49,0.00,SCT,SCT,0.00,WeatherDisplay:10.37,2013-06-27 22:51:00,
2013-06-27 17:57:00,96.1,73.8,29.83,SE,125,6.0,8.0,49,0.00,SCT,SCT,0.00,WeatherDisplay:10.37,2013-06-27 22:57:00,
2013-06-27 18:03:00,95.7,74.1,29.82,SSE,160,7.0,12.0,50,0.00,BKN,BKN,0.00,WeatherDisplay:10.37,2013-06-27 23:03:00,
2013-06-27 18:09:00,94.9,73.3,29.82,ESE,114,5.0,12.0,50,0.00,BKN,BKN,0.00,WeatherDisplay:10.37,2013-06-27 23:09:00,
2013-06-27 18:15:00,94.3,73.4,29.81,SSE,147,5.0,9.0,51,0.00,BKN,BKN,0.00,WeatherDisplay:10.37,2013-06-27 23:15:00,
2013-06-27 18:21:00,94.1,73.7,29.81,SSE,153,7.0,11.0,52,0.00,BKN,BKN,0.00,WeatherDisplay:10.37,2013-06-27 23:21:00,
2013-06-27 18:27:00,94.1,73.7,29.80,SE,130,6.0,12.0,52,0.00,BKN,BKN,0.00,WeatherDisplay:10.37,2013-06-27 23:27:00,
2013-06-27 18:33:00,94.3,73.4,29.80,SE,137,5.0,8.0,51,0.00,BKN,BKN,0.00,WeatherDisplay:10.37,2013-06-27 23:33:00,
2013-06-27 18:39:00,94.0,73.7,29.81,SE,124,6.0,9.0,52,0.00,BKN,BKN,0.00,WeatherDisplay:10.37,2013-06-27 23:39:00,
2013-06-27 18:45:00,89.7,68.6,29.81,WNW,290,24.0,28.0,50,0.00,BKN,BKN,0.00,WeatherDisplay:10.37,2013-06-27 23:45:00,
2013-06-27 18:51:00,75.6,68.6,30.00,NNE,19,31.0,35.0,79,0.00,BKN,BKN,0.00,WeatherDisplay:10.37,2013-06-27 23:51:00,
2013-06-27 18:57:00,71.6,69.2,30.00,NW,320,38.0,48.0,92,0.15,RA,RA,0.22,WeatherDisplay:10.37,2013-06-27 23:57:00,
2013-06-27 19:03:00,67.3,65.8,30.03,WNW,283,35.0,45.0,95,0.08,RA,RA,0.43,WeatherDisplay:10.37,2013-06-28 00:03:00,
2013-06-27 19:09:00,67.5,66.0,30.03,WNW,294,20.0,40.0,95,0.02,RA,RA,0.56,WeatherDisplay:10.37,2013-06-28 00:09:00,
2013-06-27 19:15:00,68.0,66.5,30.02,WNW,283,2.0,7.0,95,0.02,RA,RA,0.64,WeatherDisplay:10.37,2013-06-28 00:15:00,
2013-06-27 19:21:00,68.2,66.7,30.02,West,280,12.0,14.0,95,0.03,RA,RA,0.70,WeatherDisplay:10.37,2013-06-28 00:21:00,
2013-06-27 19:27:00,67.2,65.8,29.99,West,278,14.0,18.0,95,0.02,RA,RA,0.76,WeatherDisplay:10.37,2013-06-28 00:27:00,
2013-06-27 19:33:00,66.8,65.3,29.99,WNW,289,7.0,14.0,95,0.00,RA,RA,0.76,WeatherDisplay:10.37,2013-06-28 00:33:00,
2013-06-27 19:39:00,66.8,65.6,29.93,WNW,289,8.0,11.0,96,0.00,BKN,BKN,0.76,WeatherDisplay:10.37,2013-06-28 00:39:00,
2013-06-27 19:45:00,66.9,65.7,29.93,West,275,6.0,7.0,96,0.00,BKN,BKN,0.76,WeatherDisplay:10.37,2013-06-28 00:45:00,
2013-06-27 19:51:00,67.2,66.0,29.91,West,261,5.0,7.0,96,0.00,BKN,BKN,0.76,WeatherDisplay:10.37,2013-06-28 00:51:00,
2013-06-27 20:00:00,67.7,66.5,29.91,WSW,245,2.0,6.0,96,0.00,BKN,BKN,0.76,WeatherDisplay:10.37,2013-06-28 01:00:00,
2013-06-27 20:06:00,68.0,66.8,29.90,SW,227,3.0,5.0,96,0.00,RA,RA,0.77,WeatherDisplay:10.37,2013-06-28 01:06:00,
2013-06-27 20:12:00,68.2,67.0,29.89,SSW,205,5.0,6.0,96,0.00,RA,RA,0.77,WeatherDisplay:10.37,2013-06-28 01:12:00,
2013-06-27 20:18:00,68.4,67.2,29.88,SE,130,5.0,5.0,96,0.00,OVC,OVC,0.77,WeatherDisplay:10.37,2013-06-28 01:18:00,
2013-06-27 20:24:00,67.9,66.7,29.87,South,188,5.0,10.0,96,0.00,OVC,OVC,0.77,WeatherDisplay:10.37,2013-06-28 01:24:00,
2013-06-27 20:30:00,68.2,67.0,29.84,WSW,249,5.0,8.0,96,0.00,OVC,OVC,0.77,WeatherDisplay:10.37,2013-06-28 01:30:00,
2013-06-27 20:36:00,67.7,66.5,29.84,South,178,9.0,10.0,96,0.00,BKN,BKN,0.77,WeatherDisplay:10.37,2013-06-28 01:36:00,
2013-06-27 20:42:00,67.6,67.6,29.83,SE,134,5.0,13.0,100,0.00,BKN,BKN,0.77,WeatherDisplay:10.37,2013-06-28 01:42:00,
2013-06-27 20:48:00,67.3,67.3,29.83,East,97,5.0,8.0,100,0.00,BKN,BKN,0.77,WeatherDisplay:10.37,2013-06-28 01:48:00,
2013-06-27 20:54:00,68.2,68.2,29.83,West,280,5.0,12.0,100,0.00,BKN,BKN,0.77,WeatherDisplay:10.37,2013-06-28 01:54:00,
2013-06-27 21:00:00,69.6,68.7,29.83,NW,325,8.0,13.0,97,0.00,BKN,BKN,0.77,WeatherDisplay:10.37,2013-06-28 02:00:00,
2013-06-27 21:06:00,69.8,69.8,29.86,NNE,27,0.0,5.0,100,0.00,BKN,BKN,0.77,WeatherDisplay:10.37,2013-06-28 02:06:00,
2013-06-27 21:12:00,70.3,70.3,29.86,NE,46,0.0,0.0,100,0.00,BKN,BKN,0.77,WeatherDisplay:10.37,2013-06-28 02:12:00,
2013-06-27 21:18:00,70.0,70.0,29.86,NE,48,0.0,0.0,100,0.00,BKN,BKN,0.77,WeatherDisplay:10.37,2013-06-28 02:18:00,
2013-06-27 21:24:00,69.8,69.8,29.87,NNW,329,7.0,8.0,100,0.00,BKN,BKN,0.77,WeatherDisplay:10.37,2013-06-28 02:24:00,
2013-06-27 21:30:00,70.0,70.0,29.88,NW,314,0.0,4.0,100,0.00,BKN,BKN,0.77,WeatherDisplay:10.37,2013-06-28 02:30:00,
2013-06-27 21:36:00,70.2,69.9,29.88,NNE,15,6.0,8.0,99,0.00,BKN,BKN,0.77,WeatherDisplay:10.37,2013-06-28 02:36:00,
2013-06-27 21:42:00,70.0,70.0,29.90,North,350,3.0,6.0,100,0.00,BKN,BKN,0.77,WeatherDisplay:10.37,2013-06-28 02:42:00,
2013-06-27 21:48:00,70.5,70.5,29.90,NE,46,6.0,9.0,100,0.00,BKN,BKN,0.77,WeatherDisplay:10.37,2013-06-28 02:48:00,
2013-06-27 21:54:00,70.6,70.6,29.91,ENE,58,5.0,10.0,100,0.00,BKN,BKN,0.77,WeatherDisplay:10.37,2013-06-28 02:54:00,
2013-06-27 22:00:00,70.6,70.6,29.91,WNW,303,7.0,12.0,100,0.00,BKN,BKN,0.77,WeatherDisplay:10.37,2013-06-28 03:00:00,
2013-06-27 22:06:00,70.4,70.4,29.93,West,271,3.0,10.0,100,0.00,BKN,BKN,0.77,WeatherDisplay:10.37,2013-06-28 03:06:00,
2013-06-27 22:12:00,70.6,70.6,29.93,WNW,282,5.0,8.0,100,0.00,BKN,BKN,0.77,WeatherDisplay:10.37,2013-06-28 03:12:00,
2013-06-27 22:18:00,70.7,70.7,30.01,West,273,6.0,10.0,100,0.00,BKN,BKN,0.77,WeatherDisplay:10.37,2013-06-28 03:18:00,
2013-06-27 22:24:00,70.9,70.9,29.95,NNE,26,6.0,10.0,100,0.00,BKN,BKN,0.77,WeatherDisplay:10.37,2013-06-28 03:24:00,
2013-06-27 22:30:00,71.5,71.5,29.95,NW,306,6.0,10.0,100,0.00,BKN,BKN,0.77,WeatherDisplay:10.37,2013-06-28 03:30:00,
2013-06-27 22:36:00,71.6,71.6,29.95,WNW,286,5.0,8.0,100,0.00,BKN,BKN,0.77,WeatherDisplay:10.37,2013-06-28 03:36:00,
2013-06-27 22:42:00,72.0,72.0,29.97,West,261,7.0,10.0,100,0.00,BKN,BKN,0.77,WeatherDisplay:10.37,2013-06-28 03:42:00,
2013-06-27 22:48:00,72.2,72.2,29.97,NNW,339,7.0,10.0,100,0.00,BKN,BKN,0.77,WeatherDisplay:10.37,2013-06-28 03:48:00,
2013-06-27 22:54:00,72.2,72.2,29.98,North,5,8.0,11.0,100,0.00,BKN,BKN,0.77,WeatherDisplay:10.37,2013-06-28 03:54:00,
2013-06-27 23:00:00,72.2,72.2,29.98,North,354,7.0,12.0,100,0.00,BKN,BKN,0.77,WeatherDisplay:10.37,2013-06-28 04:00:00,
2013-06-27 23:03:00,72.4,72.4,29.98,North,356,7.0,8.0,100,0.00,BKN,BKN,0.77,WeatherDisplay:10.37,2013-06-28 04:03:00,
2013-06-27 23:09:00,72.2,72.2,29.98,NW,306,0.0,5.0,100,0.00,BKN,BKN,0.77,WeatherDisplay:10.37,2013-06-28 04:09:00,
2013-06-27 23:12:00,72.2,72.2,29.98,West,277,2.0,7.0,100,0.00,BKN,BKN,0.77,WeatherDisplay:10.37,2013-06-28 04:12:00,
2013-06-27 23:15:00,72.2,72.2,29.99,NW,307,3.0,12.0,100,0.00,BKN,BKN,0.77,WeatherDisplay:10.37,2013-06-28 04:15:00,
2013-06-27 23:21:00,72.2,72.2,29.99,NW,312,3.0,5.0,100,0.00,BKN,BKN,0.77,WeatherDisplay:10.37,2013-06-28 04:21:00,
2013-06-27 23:24:00,72.2,72.2,29.99,WNW,299,0.0,5.0,100,0.00,BKN,BKN,0.77,WeatherDisplay:10.37,2013-06-28 04:24:00,
2013-06-27 23:30:00,72.2,72.2,30.00,WNW,289,5.0,6.0,100,0.00,BKN,BKN,0.77,WeatherDisplay:10.37,2013-06-28 04:30:00,
2013-06-27 23:36:00,72.4,72.4,30.00,WNW,299,5.0,8.0,100,0.00,BKN,BKN,0.77,WeatherDisplay:10.37,2013-06-28 04:36:00,
2013-06-27 23:42:00,72.2,72.2,29.99,NW,304,6.0,10.0,100,0.00,BKN,BKN,0.77,WeatherDisplay:10.37,2013-06-28 04:42:00,
2013-06-27 23:48:00,72.5,72.5,29.99,WNW,302,6.0,8.0,100,0.00,BKN,BKN,0.77,WeatherDisplay:10.37,2013-06-28 04:48:00,
2013-06-27 23:54:00,72.5,72.5,29.99,WNW,295,9.0,11.0,100,0.00,BKN,BKN,0.77,WeatherDisplay:10.37,2013-06-28 04:54:00,